Terminal Aerodrome Forecast
Issued by NWS

Home | Current Version | Previous Version | Text Only | Print | Product List | Glossary On
Versions: 1 2 3 4 5 6 7 8 9 10 11 12 13 14
000
FTUS45 KPIH 260624 AAA
TAFSUN
TAF AMD
KSUN 260624Z 2606/2712 31011KT P6SM VCTS SCT050 OVC100CB
     FM261800 14009KT P6SM VCTS SCT050 OVC100CB
     FM262300 20008KT P6SM -SHRA VCTS SCT040 OVC090CB
     FM270300 31008KT P6SM -SHRA VCTS OVC060CB
     FM270800 31009KT P6SM VCSH BKN100
      AMD LTD TO CLD VIS AND WIND TIL 261300=

USA.gov is the U.S. government's official web portal to all federal, state and local government web resources and services.